sensor_id;sensor_type;location;lat;lon;timestamp;P1;durP1;ratioP1;P2;durP2;ratioP2
11671;SDS011;5892;43.412;24.612;2022-12-18T00:01:00;20.10;;;13.97;;
11671;SDS011;5892;43.412;24.612;2022-12-18T00:03:31;17.13;;;13.10;;
11671;SDS011;5892;43.412;24.612;2022-12-18T00:06:00;17.67;;;13.20;;
11671;SDS011;5892;43.412;24.612;2022-12-18T00:08:27;20.20;;;13.90;;
11671;SDS011;5892;43.412;24.612;2022-12-18T00:10:54;18.03;;;13.13;;
11671;SDS011;5892;43.412;24.612;2022-12-18T00:13:21;17.63;;;13.33;;
11671;SDS011;5892;43.412;24.612;2022-12-18T00:15:48;20.10;;;14.43;;
11671;SDS011;5892;43.412;24.612;2022-12-18T00:18:15;19.13;;;14.60;;
11671;SDS011;5892;43.412;24.612;2022-12-18T00:20:42;18.93;;;14.07;;
11671;SDS011;5892;43.412;24.612;2022-12-18T00:23:11;17.43;;;14.10;;
11671;SDS011;5892;43.412;24.612;2022-12-18T00:25:37;17.10;;;13.17;;
11671;SDS011;5892;43.412;24.612;2022-12-18T00:28:04;17.90;;;13.33;;
11671;SDS011;5892;43.412;24.612;2022-12-18T00:30:31;19.30;;;14.10;;
11671;SDS011;5892;43.412;24.612;2022-12-18T00:32:58;18.27;;;14.30;;
11671;SDS011;5892;43.412;24.612;2022-12-18T00:35:26;19.47;;;14.70;;
11671;SDS011;5892;43.412;24.612;2022-12-18T00:37:53;18.73;;;13.53;;
11671;SDS011;5892;43.412;24.612;2022-12-18T00:40:21;19.30;;;14.13;;
11671;SDS011;5892;43.412;24.612;2022-12-18T00:42:48;17.13;;;13.97;;
11671;SDS011;5892;43.412;24.612;2022-12-18T00:45:20;17.53;;;12.73;;
11671;SDS011;5892;43.412;24.612;2022-12-18T00:47:48;17.77;;;13.70;;
11671;SDS011;5892;43.412;24.612;2022-12-18T00:50:15;17.90;;;12.70;;
11671;SDS011;5892;43.412;24.612;2022-12-18T00:52:42;18.00;;;13.10;;
11671;SDS011;5892;43.412;24.612;2022-12-18T00:55:09;16.50;;;12.07;;
11671;SDS011;5892;43.412;24.612;2022-12-18T00:57:41;18.20;;;13.60;;
11671;SDS011;5892;43.412;24.612;2022-12-18T01:00:09;18.50;;;13.93;;
11671;SDS011;5892;43.412;24.612;2022-12-18T01:02:38;18.50;;;13.47;;
11671;SDS011;5892;43.412;24.612;2022-12-18T01:05:07;15.40;;;12.63;;
11671;SDS011;5892;43.412;24.612;2022-12-18T01:07:35;17.73;;;13.53;;
11671;SDS011;5892;43.412;24.612;2022-12-18T01:10:03;16.00;;;11.73;;
11671;SDS011;5892;43.412;24.612;2022-12-18T01:12:31;17.97;;;13.40;;
11671;SDS011;5892;43.412;24.612;2022-12-18T01:14:59;17.63;;;12.53;;
11671;SDS011;5892;43.412;24.612;2022-12-18T01:17:26;18.13;;;13.37;;
11671;SDS011;5892;43.412;24.612;2022-12-18T01:19:53;16.70;;;12.80;;
11671;SDS011;5892;43.412;24.612;2022-12-18T01:22:20;17.83;;;13.60;;
11671;SDS011;5892;43.412;24.612;2022-12-18T01:24:48;19.70;;;13.80;;
11671;SDS011;5892;43.412;24.612;2022-12-18T01:27:15;18.37;;;12.97;;
11671;SDS011;5892;43.412;24.612;2022-12-18T01:29:42;15.97;;;12.67;;
11671;SDS011;5892;43.412;24.612;2022-12-18T01:32:10;18.03;;;13.43;;
11671;SDS011;5892;43.412;24.612;2022-12-18T01:34:37;16.23;;;12.27;;
11671;SDS011;5892;43.412;24.612;2022-12-18T01:37:04;16.87;;;12.53;;
11671;SDS011;5892;43.412;24.612;2022-12-18T01:39:31;16.00;;;12.70;;
11671;SDS011;5892;43.412;24.612;2022-12-18T01:41:59;17.73;;;12.27;;
11671;SDS011;5892;43.412;24.612;2022-12-18T01:47:23;13.93;;;11.60;;
11671;SDS011;5892;43.412;24.612;2022-12-18T01:49:52;15.27;;;11.77;;
11671;SDS011;5892;43.412;24.612;2022-12-18T01:52:20;14.13;;;11.47;;
11671;SDS011;5892;43.412;24.612;2022-12-18T01:54:48;13.83;;;11.47;;
11671;SDS011;5892;43.412;24.612;2022-12-18T01:57:17;14.90;;;11.10;;
11671;SDS011;5892;43.412;24.612;2022-12-18T01:59:45;14.03;;;11.60;;
11671;SDS011;5892;43.412;24.612;2022-12-18T02:02:16;15.40;;;11.87;;
11671;SDS011;5892;43.412;24.612;2022-12-18T02:04:45;13.37;;;11.37;;
11671;SDS011;5892;43.412;24.612;2022-12-18T02:07:14;14.83;;;11.60;;
11671;SDS011;5892;43.412;24.612;2022-12-18T02:09:50;14.83;;;12.00;;
11671;SDS011;5892;43.412;24.612;2022-12-18T02:12:22;15.33;;;11.80;;
11671;SDS011;5892;43.412;24.612;2022-12-18T02:14:54;15.83;;;12.00;;
11671;SDS011;5892;43.412;24.612;2022-12-18T02:17:27;14.27;;;11.70;;
11671;SDS011;5892;43.412;24.612;2022-12-18T02:20:04;14.60;;;11.40;;
11671;SDS011;5892;43.412;24.612;2022-12-18T02:22:43;14.30;;;11.80;;
11671;SDS011;5892;43.412;24.612;2022-12-18T02:25:25;13.90;;;11.33;;
11671;SDS011;5892;43.412;24.612;2022-12-18T02:28:06;14.53;;;11.37;;
11671;SDS011;5892;43.412;24.612;2022-12-18T02:30:38;14.70;;;11.77;;
11671;SDS011;5892;43.412;24.612;2022-12-18T02:33:09;14.20;;;11.83;;
11671;SDS011;5892;43.412;24.612;2022-12-18T02:35:38;13.50;;;11.47;;
11671;SDS011;5892;43.412;24.612;2022-12-18T02:38:07;13.17;;;11.30;;
11671;SDS011;5892;43.412;24.612;2022-12-18T02:40:34;14.30;;;11.83;;
11671;SDS011;5892;43.412;24.612;2022-12-18T02:43:08;13.67;;;11.60;;
11671;SDS011;5892;43.412;24.612;2022-12-18T02:45:36;15.37;;;12.17;;
11671;SDS011;5892;43.412;24.612;2022-12-18T02:48:12;15.23;;;12.33;;
11671;SDS011;5892;43.412;24.612;2022-12-18T02:50:41;14.97;;;12.27;;
11671;SDS011;5892;43.412;24.612;2022-12-18T02:53:20;17.60;;;12.93;;
11671;SDS011;5892;43.412;24.612;2022-12-18T02:55:56;17.83;;;12.90;;
11671;SDS011;5892;43.412;24.612;2022-12-18T02:58:32;16.20;;;12.80;;
11671;SDS011;5892;43.412;24.612;2022-12-18T03:01:06;16.43;;;12.80;;
11671;SDS011;5892;43.412;24.612;2022-12-18T03:03:42;16.53;;;12.80;;
11671;SDS011;5892;43.412;24.612;2022-12-18T03:06:18;18.07;;;13.50;;
11671;SDS011;5892;43.412;24.612;2022-12-18T03:08:50;15.03;;;12.37;;
11671;SDS011;5892;43.412;24.612;2022-12-18T03:11:23;17.67;;;13.33;;
11671;SDS011;5892;43.412;24.612;2022-12-18T03:14:08;16.63;;;13.53;;
11671;SDS011;5892;43.412;24.612;2022-12-18T03:16:36;19.37;;;14.20;;
11671;SDS011;5892;43.412;24.612;2022-12-18T03:19:06;18.77;;;13.93;;
11671;SDS011;5892;43.412;24.612;2022-12-18T03:21:40;19.07;;;14.40;;
11671;SDS011;5892;43.412;24.612;2022-12-18T03:24:10;20.00;;;15.90;;
11671;SDS011;5892;43.412;24.612;2022-12-18T03:26:42;22.60;;;16.27;;
11671;SDS011;5892;43.412;24.612;2022-12-18T03:29:14;22.27;;;17.03;;
11671;SDS011;5892;43.412;24.612;2022-12-18T03:31:46;22.90;;;17.60;;
11671;SDS011;5892;43.412;24.612;2022-12-18T03:34:21;23.80;;;17.27;;
11671;SDS011;5892;43.412;24.612;2022-12-18T03:36:52;27.17;;;19.47;;
11671;SDS011;5892;43.412;24.612;2022-12-18T03:39:20;24.77;;;19.17;;
11671;SDS011;5892;43.412;24.612;2022-12-18T03:41:48;28.30;;;18.07;;
11671;SDS011;5892;43.412;24.612;2022-12-18T03:44:27;24.97;;;17.77;;
11671;SDS011;5892;43.412;24.612;2022-12-18T03:47:01;25.10;;;17.90;;
11671;SDS011;5892;43.412;24.612;2022-12-18T03:49:35;25.97;;;19.30;;
11671;SDS011;5892;43.412;24.612;2022-12-18T03:52:06;26.57;;;19.07;;
11671;SDS011;5892;43.412;24.612;2022-12-18T03:54:37;23.50;;;18.43;;
11671;SDS011;5892;43.412;24.612;2022-12-18T03:57:08;25.47;;;18.53;;
11671;SDS011;5892;43.412;24.612;2022-12-18T03:59:42;23.63;;;18.13;;
11671;SDS011;5892;43.412;24.612;2022-12-18T04:02:11;26.70;;;19.30;;
11671;SDS011;5892;43.412;24.612;2022-12-18T04:04:41;28.87;;;19.50;;
11671;SDS011;5892;43.412;24.612;2022-12-18T04:07:10;33.40;;;23.13;;
11671;SDS011;5892;43.412;24.612;2022-12-18T04:09:39;32.10;;;22.63;;
11671;SDS011;5892;43.412;24.612;2022-12-18T04:12:11;26.13;;;19.10;;
11671;SDS011;5892;43.412;24.612;2022-12-18T04:14:37;26.23;;;18.67;;
11671;SDS011;5892;43.412;24.612;2022-12-18T04:17:06;24.47;;;18.87;;
11671;SDS011;5892;43.412;24.612;2022-12-18T04:19:33;25.17;;;18.60;;
11671;SDS011;5892;43.412;24.612;2022-12-18T04:22:01;26.13;;;18.87;;
11671;SDS011;5892;43.412;24.612;2022-12-18T04:24:27;27.00;;;19.00;;
11671;SDS011;5892;43.412;24.612;2022-12-18T04:26:54;26.57;;;19.23;;
11671;SDS011;5892;43.412;24.612;2022-12-18T04:29:21;26.20;;;19.23;;
11671;SDS011;5892;43.412;24.612;2022-12-18T04:31:48;24.87;;;19.17;;
11671;SDS011;5892;43.412;24.612;2022-12-18T04:34:17;26.53;;;19.37;;
11671;SDS011;5892;43.412;24.612;2022-12-18T04:36:45;26.87;;;18.83;;
11671;SDS011;5892;43.412;24.612;2022-12-18T04:39:12;27.93;;;20.03;;
11671;SDS011;5892;43.412;24.612;2022-12-18T04:41:39;26.27;;;19.13;;
11671;SDS011;5892;43.412;24.612;2022-12-18T04:44:07;29.03;;;20.73;;
11671;SDS011;5892;43.412;24.612;2022-12-18T04:46:34;26.53;;;19.13;;
11671;SDS011;5892;43.412;24.612;2022-12-18T04:49:01;27.37;;;19.97;;
11671;SDS011;5892;43.412;24.612;2022-12-18T04:51:30;27.63;;;19.43;;
11671;SDS011;5892;43.412;24.612;2022-12-18T04:53:56;27.93;;;19.83;;
11671;SDS011;5892;43.412;24.612;2022-12-18T04:56:24;28.23;;;20.67;;
11671;SDS011;5892;43.412;24.612;2022-12-18T04:58:51;28.03;;;19.93;;
11671;SDS011;5892;43.412;24.612;2022-12-18T05:01:18;29.17;;;20.23;;
11671;SDS011;5892;43.412;24.612;2022-12-18T05:03:46;29.33;;;20.77;;
11671;SDS011;5892;43.412;24.612;2022-12-18T05:06:13;29.47;;;21.20;;
11671;SDS011;5892;43.412;24.612;2022-12-18T05:08:41;28.10;;;20.40;;
11671;SDS011;5892;43.412;24.612;2022-12-18T05:11:09;27.63;;;20.00;;
11671;SDS011;5892;43.412;24.612;2022-12-18T05:13:37;29.63;;;20.57;;
11671;SDS011;5892;43.412;24.612;2022-12-18T05:16:05;29.07;;;21.40;;
11671;SDS011;5892;43.412;24.612;2022-12-18T05:18:33;29.27;;;20.60;;
11671;SDS011;5892;43.412;24.612;2022-12-18T05:21:00;34.47;;;21.63;;
11671;SDS011;5892;43.412;24.612;2022-12-18T05:23:27;30.57;;;21.27;;
11671;SDS011;5892;43.412;24.612;2022-12-18T05:25:56;31.37;;;22.63;;
11671;SDS011;5892;43.412;24.612;2022-12-18T05:28:27;29.90;;;20.53;;
11671;SDS011;5892;43.412;24.612;2022-12-18T05:30:57;28.70;;;20.57;;
11671;SDS011;5892;43.412;24.612;2022-12-18T05:33:28;28.23;;;20.80;;
11671;SDS011;5892;43.412;24.612;2022-12-18T05:35:57;30.57;;;21.67;;
11671;SDS011;5892;43.412;24.612;2022-12-18T05:38:25;34.60;;;23.80;;
11671;SDS011;5892;43.412;24.612;2022-12-18T05:40:53;31.47;;;22.03;;
11671;SDS011;5892;43.412;24.612;2022-12-18T05:43:22;29.80;;;21.57;;
11671;SDS011;5892;43.412;24.612;2022-12-18T05:45:51;29.53;;;21.30;;
11671;SDS011;5892;43.412;24.612;2022-12-18T05:48:20;29.60;;;20.60;;
11671;SDS011;5892;43.412;24.612;2022-12-18T05:50:48;28.93;;;20.40;;
11671;SDS011;5892;43.412;24.612;2022-12-18T05:53:17;28.33;;;20.43;;
11671;SDS011;5892;43.412;24.612;2022-12-18T05:55:45;28.10;;;20.73;;
11671;SDS011;5892;43.412;24.612;2022-12-18T05:58:13;29.37;;;20.80;;
11671;SDS011;5892;43.412;24.612;2022-12-18T06:00:42;29.57;;;21.33;;
11671;SDS011;5892;43.412;24.612;2022-12-18T06:03:14;29.17;;;20.63;;
11671;SDS011;5892;43.412;24.612;2022-12-18T06:05:44;29.30;;;20.63;;
11671;SDS011;5892;43.412;24.612;2022-12-18T06:08:16;28.20;;;20.27;;
11671;SDS011;5892;43.412;24.612;2022-12-18T06:10:48;28.30;;;20.20;;
11671;SDS011;5892;43.412;24.612;2022-12-18T06:13:18;28.70;;;20.37;;
11671;SDS011;5892;43.412;24.612;2022-12-18T06:15:46;27.43;;;20.93;;
11671;SDS011;5892;43.412;24.612;2022-12-18T06:18:13;28.93;;;20.37;;
11671;SDS011;5892;43.412;24.612;2022-12-18T06:20:40;30.63;;;20.17;;
11671;SDS011;5892;43.412;24.612;2022-12-18T06:23:08;28.40;;;20.70;;
11671;SDS011;5892;43.412;24.612;2022-12-18T06:25:37;32.43;;;20.50;;
11671;SDS011;5892;43.412;24.612;2022-12-18T06:28:05;29.57;;;21.37;;
11671;SDS011;5892;43.412;24.612;2022-12-18T06:30:32;30.07;;;20.90;;
11671;SDS011;5892;43.412;24.612;2022-12-18T06:33:00;28.60;;;20.53;;
11671;SDS011;5892;43.412;24.612;2022-12-18T06:35:27;27.83;;;19.93;;
11671;SDS011;5892;43.412;24.612;2022-12-18T06:37:54;28.33;;;20.33;;
11671;SDS011;5892;43.412;24.612;2022-12-18T06:40:21;28.10;;;20.53;;
11671;SDS011;5892;43.412;24.612;2022-12-18T06:42:48;28.57;;;20.50;;
11671;SDS011;5892;43.412;24.612;2022-12-18T06:45:15;29.50;;;20.57;;
11671;SDS011;5892;43.412;24.612;2022-12-18T06:47:42;28.90;;;20.60;;
11671;SDS011;5892;43.412;24.612;2022-12-18T06:50:10;26.83;;;19.57;;
11671;SDS011;5892;43.412;24.612;2022-12-18T06:52:38;29.10;;;20.83;;
11671;SDS011;5892;43.412;24.612;2022-12-18T06:55:07;27.00;;;19.60;;
11671;SDS011;5892;43.412;24.612;2022-12-18T06:57:35;23.43;;;18.40;;
11671;SDS011;5892;43.412;24.612;2022-12-18T07:00:02;26.30;;;19.60;;
11671;SDS011;5892;43.412;24.612;2022-12-18T07:02:32;26.37;;;18.73;;
11671;SDS011;5892;43.412;24.612;2022-12-18T07:05:00;24.97;;;19.23;;
11671;SDS011;5892;43.412;24.612;2022-12-18T07:07:28;26.47;;;19.53;;
11671;SDS011;5892;43.412;24.612;2022-12-18T07:09:56;28.87;;;20.00;;
11671;SDS011;5892;43.412;24.612;2022-12-18T07:12:23;26.70;;;19.50;;
11671;SDS011;5892;43.412;24.612;2022-12-18T07:14:49;23.97;;;18.33;;
11671;SDS011;5892;43.412;24.612;2022-12-18T07:17:17;25.77;;;18.53;;
11671;SDS011;5892;43.412;24.612;2022-12-18T07:19:47;22.90;;;17.77;;
11671;SDS011;5892;43.412;24.612;2022-12-18T07:22:14;24.50;;;17.50;;
11671;SDS011;5892;43.412;24.612;2022-12-18T07:24:42;22.07;;;17.23;;
11671;SDS011;5892;43.412;24.612;2022-12-18T07:27:11;22.13;;;17.13;;
11671;SDS011;5892;43.412;24.612;2022-12-18T07:29:38;25.20;;;18.37;;
11671;SDS011;5892;43.412;24.612;2022-12-18T07:32:05;26.93;;;20.00;;
11671;SDS011;5892;43.412;24.612;2022-12-18T07:34:32;23.33;;;16.87;;
11671;SDS011;5892;43.412;24.612;2022-12-18T07:36:59;25.30;;;17.77;;
11671;SDS011;5892;43.412;24.612;2022-12-18T07:39:26;22.27;;;17.27;;
11671;SDS011;5892;43.412;24.612;2022-12-18T07:41:55;20.47;;;16.67;;
11671;SDS011;5892;43.412;24.612;2022-12-18T07:44:39;23.40;;;16.40;;
11671;SDS011;5892;43.412;24.612;2022-12-18T07:47:09;23.53;;;16.50;;
11671;SDS011;5892;43.412;24.612;2022-12-18T07:49:37;22.77;;;16.70;;
11671;SDS011;5892;43.412;24.612;2022-12-18T07:52:04;22.50;;;16.50;;
11671;SDS011;5892;43.412;24.612;2022-12-18T07:54:31;22.30;;;17.07;;
11671;SDS011;5892;43.412;24.612;2022-12-18T07:57:00;22.83;;;17.07;;
11671;SDS011;5892;43.412;24.612;2022-12-18T07:59:27;22.00;;;16.73;;
11671;SDS011;5892;43.412;24.612;2022-12-18T08:01:54;25.60;;;20.20;;
11671;SDS011;5892;43.412;24.612;2022-12-18T08:04:21;23.20;;;17.80;;
11671;SDS011;5892;43.412;24.612;2022-12-18T08:06:48;24.57;;;18.67;;
11671;SDS011;5892;43.412;24.612;2022-12-18T08:09:15;25.37;;;18.30;;
11671;SDS011;5892;43.412;24.612;2022-12-18T08:11:44;26.40;;;19.40;;
11671;SDS011;5892;43.412;24.612;2022-12-18T08:14:12;25.07;;;19.37;;
11671;SDS011;5892;43.412;24.612;2022-12-18T08:16:42;24.97;;;18.37;;
11671;SDS011;5892;43.412;24.612;2022-12-18T08:19:09;23.83;;;17.73;;
11671;SDS011;5892;43.412;24.612;2022-12-18T08:21:39;21.07;;;16.87;;
11671;SDS011;5892;43.412;24.612;2022-12-18T08:24:08;20.33;;;15.83;;
11671;SDS011;5892;43.412;24.612;2022-12-18T08:26:37;21.73;;;17.60;;
11671;SDS011;5892;43.412;24.612;2022-12-18T08:29:04;23.60;;;18.00;;
11671;SDS011;5892;43.412;24.612;2022-12-18T08:31:33;23.37;;;17.93;;
11671;SDS011;5892;43.412;24.612;2022-12-18T08:34:02;26.07;;;17.80;;
11671;SDS011;5892;43.412;24.612;2022-12-18T08:36:29;22.57;;;15.73;;
11671;SDS011;5892;43.412;24.612;2022-12-18T08:38:56;22.23;;;17.07;;
11671;SDS011;5892;43.412;24.612;2022-12-18T08:41:23;23.10;;;16.77;;
11671;SDS011;5892;43.412;24.612;2022-12-18T08:43:50;21.03;;;16.60;;
11671;SDS011;5892;43.412;24.612;2022-12-18T08:46:36;22.83;;;17.43;;
11671;SDS011;5892;43.412;24.612;2022-12-18T08:49:04;21.83;;;16.00;;
11671;SDS011;5892;43.412;24.612;2022-12-18T08:51:32;20.57;;;16.20;;
11671;SDS011;5892;43.412;24.612;2022-12-18T08:54:00;21.70;;;16.60;;
11671;SDS011;5892;43.412;24.612;2022-12-18T08:56:27;21.53;;;16.87;;
11671;SDS011;5892;43.412;24.612;2022-12-18T08:58:55;23.87;;;18.03;;
11671;SDS011;5892;43.412;24.612;2022-12-18T09:01:22;23.07;;;17.87;;
11671;SDS011;5892;43.412;24.612;2022-12-18T09:03:51;21.87;;;16.80;;
11671;SDS011;5892;43.412;24.612;2022-12-18T09:06:19;23.13;;;16.83;;
11671;SDS011;5892;43.412;24.612;2022-12-18T09:08:47;22.03;;;15.60;;
11671;SDS011;5892;43.412;24.612;2022-12-18T09:11:15;23.43;;;16.43;;
11671;SDS011;5892;43.412;24.612;2022-12-18T09:13:46;21.97;;;16.40;;
11671;SDS011;5892;43.412;24.612;2022-12-18T09:16:13;21.20;;;15.87;;
11671;SDS011;5892;43.412;24.612;2022-12-18T09:18:40;20.70;;;16.87;;
11671;SDS011;5892;43.412;24.612;2022-12-18T09:21:09;20.60;;;15.77;;
11671;SDS011;5892;43.412;24.612;2022-12-18T09:23:38;19.63;;;15.13;;
11671;SDS011;5892;43.412;24.612;2022-12-18T09:26:05;20.60;;;15.40;;
11671;SDS011;5892;43.412;24.612;2022-12-18T09:28:32;19.50;;;15.30;;
11671;SDS011;5892;43.412;24.612;2022-12-18T09:31:03;22.20;;;16.97;;
11671;SDS011;5892;43.412;24.612;2022-12-18T09:33:31;19.50;;;14.10;;
11671;SDS011;5892;43.412;24.612;2022-12-18T09:36:00;19.97;;;14.37;;
11671;SDS011;5892;43.412;24.612;2022-12-18T09:38:29;20.50;;;16.30;;
11671;SDS011;5892;43.412;24.612;2022-12-18T09:40:57;24.37;;;17.40;;
11671;SDS011;5892;43.412;24.612;2022-12-18T09:43:33;21.47;;;15.73;;
11671;SDS011;5892;43.412;24.612;2022-12-18T09:46:14;21.37;;;16.03;;
11671;SDS011;5892;43.412;24.612;2022-12-18T09:48:46;27.20;;;15.90;;
11671;SDS011;5892;43.412;24.612;2022-12-18T09:51:18;19.03;;;13.50;;
11671;SDS011;5892;43.412;24.612;2022-12-18T09:53:51;18.90;;;14.67;;
11671;SDS011;5892;43.412;24.612;2022-12-18T09:56:33;19.70;;;14.40;;
11671;SDS011;5892;43.412;24.612;2022-12-18T09:59:04;20.03;;;14.93;;
11671;SDS011;5892;43.412;24.612;2022-12-18T10:01:31;21.20;;;15.23;;
11671;SDS011;5892;43.412;24.612;2022-12-18T10:03:59;19.53;;;14.83;;
11671;SDS011;5892;43.412;24.612;2022-12-18T10:06:27;20.27;;;15.20;;
11671;SDS011;5892;43.412;24.612;2022-12-18T10:09:04;22.47;;;15.90;;
11671;SDS011;5892;43.412;24.612;2022-12-18T10:11:43;21.43;;;15.80;;
11671;SDS011;5892;43.412;24.612;2022-12-18T10:14:20;20.77;;;14.70;;
11671;SDS011;5892;43.412;24.612;2022-12-18T10:16:55;22.40;;;15.33;;
11671;SDS011;5892;43.412;24.612;2022-12-18T10:19:37;18.33;;;13.90;;
11671;SDS011;5892;43.412;24.612;2022-12-18T10:22:16;20.00;;;15.07;;
11671;SDS011;5892;43.412;24.612;2022-12-18T10:24:55;21.73;;;16.70;;
11671;SDS011;5892;43.412;24.612;2022-12-18T10:27:29;21.33;;;14.73;;
11671;SDS011;5892;43.412;24.612;2022-12-18T10:29:59;20.00;;;14.90;;
11671;SDS011;5892;43.412;24.612;2022-12-18T10:32:32;22.10;;;15.97;;
11671;SDS011;5892;43.412;24.612;2022-12-18T10:34:59;23.37;;;15.60;;
11671;SDS011;5892;43.412;24.612;2022-12-18T10:37:27;23.07;;;16.63;;
11671;SDS011;5892;43.412;24.612;2022-12-18T10:40:08;21.70;;;15.87;;
11671;SDS011;5892;43.412;24.612;2022-12-18T10:42:38;19.67;;;14.83;;
11671;SDS011;5892;43.412;24.612;2022-12-18T10:45:11;22.30;;;16.27;;
11671;SDS011;5892;43.412;24.612;2022-12-18T10:47:41;22.77;;;16.80;;
11671;SDS011;5892;43.412;24.612;2022-12-18T10:50:18;28.37;;;20.63;;
11671;SDS011;5892;43.412;24.612;2022-12-18T10:52:53;26.30;;;17.70;;
11671;SDS011;5892;43.412;24.612;2022-12-18T10:55:26;23.03;;;16.63;;
11671;SDS011;5892;43.412;24.612;2022-12-18T10:58:15;23.43;;;16.80;;
11671;SDS011;5892;43.412;24.612;2022-12-18T11:00:53;20.37;;;14.63;;
11671;SDS011;5892;43.412;24.612;2022-12-18T11:03:31;25.93;;;15.47;;
11671;SDS011;5892;43.412;24.612;2022-12-18T11:06:05;42.37;;;22.63;;
11671;SDS011;5892;43.412;24.612;2022-12-18T11:08:57;19.63;;;14.97;;
11671;SDS011;5892;43.412;24.612;2022-12-18T11:11:31;20.70;;;14.17;;
11671;SDS011;5892;43.412;24.612;2022-12-18T11:14:03;20.63;;;14.87;;
11671;SDS011;5892;43.412;24.612;2022-12-18T11:16:33;18.97;;;14.27;;
11671;SDS011;5892;43.412;24.612;2022-12-18T11:19:10;22.17;;;14.93;;
11671;SDS011;5892;43.412;24.612;2022-12-18T11:21:47;21.77;;;15.53;;
11671;SDS011;5892;43.412;24.612;2022-12-18T11:24:17;18.33;;;14.17;;
11671;SDS011;5892;43.412;24.612;2022-12-18T11:26:49;20.33;;;14.47;;
11671;SDS011;5892;43.412;24.612;2022-12-18T11:29:20;19.80;;;15.03;;
11671;SDS011;5892;43.412;24.612;2022-12-18T11:31:53;18.90;;;14.17;;
11671;SDS011;5892;43.412;24.612;2022-12-18T11:34:48;20.77;;;13.83;;
11671;SDS011;5892;43.412;24.612;2022-12-18T11:37:20;23.17;;;16.40;;
11671;SDS011;5892;43.412;24.612;2022-12-18T11:39:51;42.50;;;21.13;;
11671;SDS011;5892;43.412;24.612;2022-12-18T11:42:24;20.10;;;14.13;;
11671;SDS011;5892;43.412;24.612;2022-12-18T11:45:01;22.20;;;15.47;;
11671;SDS011;5892;43.412;24.612;2022-12-18T11:47:46;21.77;;;14.97;;
11671;SDS011;5892;43.412;24.612;2022-12-18T11:50:19;16.57;;;11.93;;
11671;SDS011;5892;43.412;24.612;2022-12-18T11:52:50;19.70;;;12.17;;
11671;SDS011;5892;43.412;24.612;2022-12-18T11:55:19;14.27;;;11.10;;
11671;SDS011;5892;43.412;24.612;2022-12-18T11:57:57;18.43;;;13.53;;
11671;SDS011;5892;43.412;24.612;2022-12-18T12:00:29;17.77;;;13.13;;
11671;SDS011;5892;43.412;24.612;2022-12-18T12:06:16;24.10;;;14.07;;
11671;SDS011;5892;43.412;24.612;2022-12-18T12:08:57;22.57;;;14.10;;
11671;SDS011;5892;43.412;24.612;2022-12-18T12:11:35;21.97;;;15.30;;
11671;SDS011;5892;43.412;24.612;2022-12-18T12:14:27;21.70;;;14.57;;
11671;SDS011;5892;43.412;24.612;2022-12-18T12:17:06;19.43;;;13.50;;
11671;SDS011;5892;43.412;24.612;2022-12-18T12:19:41;19.97;;;13.93;;
11671;SDS011;5892;43.412;24.612;2022-12-18T12:22:18;17.10;;;12.20;;
11671;SDS011;5892;43.412;24.612;2022-12-18T12:25:01;16.90;;;11.17;;
11671;SDS011;5892;43.412;24.612;2022-12-18T12:27:42;22.87;;;13.13;;
11671;SDS011;5892;43.412;24.612;2022-12-18T12:30:18;16.80;;;12.53;;
11671;SDS011;5892;43.412;24.612;2022-12-18T12:32:54;17.83;;;12.60;;
11671;SDS011;5892;43.412;24.612;2022-12-18T12:35:35;23.23;;;14.50;;
11671;SDS011;5892;43.412;24.612;2022-12-18T12:38:11;32.60;;;18.97;;
11671;SDS011;5892;43.412;24.612;2022-12-18T12:40:46;34.57;;;18.40;;
11671;SDS011;5892;43.412;24.612;2022-12-18T12:43:22;47.00;;;23.40;;
11671;SDS011;5892;43.412;24.612;2022-12-18T12:45:57;51.13;;;23.17;;
11671;SDS011;5892;43.412;24.612;2022-12-18T12:48:35;30.63;;;16.93;;
11671;SDS011;5892;43.412;24.612;2022-12-18T12:51:10;39.27;;;21.67;;
11671;SDS011;5892;43.412;24.612;2022-12-18T12:53:41;26.13;;;15.93;;
11671;SDS011;5892;43.412;24.612;2022-12-18T12:56:09;38.90;;;21.97;;
11671;SDS011;5892;43.412;24.612;2022-12-18T12:58:43;27.40;;;19.53;;
11671;SDS011;5892;43.412;24.612;2022-12-18T13:01:25;21.37;;;13.10;;
11671;SDS011;5892;43.412;24.612;2022-12-18T13:03:57;17.43;;;13.00;;
11671;SDS011;5892;43.412;24.612;2022-12-18T13:06:35;17.30;;;12.70;;
11671;SDS011;5892;43.412;24.612;2022-12-18T13:09:08;16.97;;;12.30;;
11671;SDS011;5892;43.412;24.612;2022-12-18T13:11:36;16.83;;;10.97;;
11671;SDS011;5892;43.412;24.612;2022-12-18T13:14:29;15.17;;;10.93;;
11671;SDS011;5892;43.412;24.612;2022-12-18T13:17:21;18.80;;;12.73;;
11671;SDS011;5892;43.412;24.612;2022-12-18T13:20:03;18.57;;;12.63;;
11671;SDS011;5892;43.412;24.612;2022-12-18T13:22:35;16.67;;;11.70;;
11671;SDS011;5892;43.412;24.612;2022-12-18T13:27:59;15.77;;;11.33;;
11671;SDS011;5892;43.412;24.612;2022-12-18T13:30:44;15.67;;;11.80;;
11671;SDS011;5892;43.412;24.612;2022-12-18T13:36:26;16.83;;;10.53;;
11671;SDS011;5892;43.412;24.612;2022-12-18T13:41:51;19.03;;;12.63;;
11671;SDS011;5892;43.412;24.612;2022-12-18T13:44:24;18.50;;;11.90;;
11671;SDS011;5892;43.412;24.612;2022-12-18T13:46:57;17.17;;;12.20;;
11671;SDS011;5892;43.412;24.612;2022-12-18T13:49:28;18.07;;;12.47;;
11671;SDS011;5892;43.412;24.612;2022-12-18T13:52:13;17.13;;;12.77;;
11671;SDS011;5892;43.412;24.612;2022-12-18T13:54:47;27.17;;;18.67;;
11671;SDS011;5892;43.412;24.612;2022-12-18T13:57:26;26.33;;;17.47;;
11671;SDS011;5892;43.412;24.612;2022-12-18T13:59:54;25.07;;;17.70;;
11671;SDS011;5892;43.412;24.612;2022-12-18T14:02:23;23.07;;;16.17;;
11671;SDS011;5892;43.412;24.612;2022-12-18T14:04:54;24.67;;;16.87;;
11671;SDS011;5892;43.412;24.612;2022-12-18T14:07:23;22.23;;;14.23;;
11671;SDS011;5892;43.412;24.612;2022-12-18T14:09:53;20.83;;;15.27;;
11671;SDS011;5892;43.412;24.612;2022-12-18T14:12:22;21.03;;;15.40;;
11671;SDS011;5892;43.412;24.612;2022-12-18T14:15:12;20.27;;;14.30;;
11671;SDS011;5892;43.412;24.612;2022-12-18T14:17:49;23.90;;;16.00;;
11671;SDS011;5892;43.412;24.612;2022-12-18T14:20:18;41.03;;;23.53;;
11671;SDS011;5892;43.412;24.612;2022-12-18T14:22:47;43.00;;;25.63;;
11671;SDS011;5892;43.412;24.612;2022-12-18T14:25:18;34.37;;;19.10;;
11671;SDS011;5892;43.412;24.612;2022-12-18T14:27:50;36.93;;;22.17;;
11671;SDS011;5892;43.412;24.612;2022-12-18T14:30:25;35.07;;;20.77;;
11671;SDS011;5892;43.412;24.612;2022-12-18T14:33:00;25.13;;;16.87;;
11671;SDS011;5892;43.412;24.612;2022-12-18T14:35:30;32.90;;;23.57;;
11671;SDS011;5892;43.412;24.612;2022-12-18T14:38:14;24.70;;;16.07;;
11671;SDS011;5892;43.412;24.612;2022-12-18T14:40:47;26.53;;;15.07;;
11671;SDS011;5892;43.412;24.612;2022-12-18T14:43:19;22.47;;;14.53;;
11671;SDS011;5892;43.412;24.612;2022-12-18T14:45:46;26.20;;;19.13;;
11671;SDS011;5892;43.412;24.612;2022-12-18T14:48:16;20.93;;;14.87;;
11671;SDS011;5892;43.412;24.612;2022-12-18T14:50:53;21.13;;;15.73;;
11671;SDS011;5892;43.412;24.612;2022-12-18T14:53:26;24.60;;;18.57;;
11671;SDS011;5892;43.412;24.612;2022-12-18T14:56:00;22.10;;;15.47;;
11671;SDS011;5892;43.412;24.612;2022-12-18T14:58:27;21.70;;;15.30;;